Aeroporto :
LOGIN :

Iscrizione | Disclaimer

   EN    FR    IT 

 










Sommario :    VFR   VFR Marginale   IFR   IFR Intensivo   IFR Molto Intensivo
Visibilità : 
Base nubi : 
>= 8 km
>= 3000ft
5 / 8 km
1000 / 3000 ft
1500m / 5 km
500 / 1000 ft
800 / 1500m
200 / 500 ft
< 800m
< 200 ft
Simboli :   Temporali  Nebbia  Neve Forte  Precipitazioni Forti  Vento > 20 kt
SIGMETs :   Varie  Temporali  Ghiacco  Turbolenza  Onda orograficha  Ceneri Vulcaniche






- Altitudine del aeroporto : 47 ft
- Codice IATA : CBG


EGSC - Cambridge

ULTIMO METAR :
  • 121350Z 25016KT 9999 BKN024 07/03 Q0994

METARs OBSOLETI :
  • 121320Z 25014G24KT 9999 BKN024 07/03 Q0994
  • 121250Z 24015KT 9000 -SHRA BKN026 07/03 Q0994
  • 121220Z 23013KT 9000 -SHRA BKN026 06/03 Q0994
  • 121150Z 26020KT 6000 -SHRA BKN016 06/03 Q0995
  • 121120Z 24016KT 9999 -RA VCSH FEW020 SCT045 07/02 Q0995

TAF TAF EGSC
Valido dal 12 a 12 ore il 12 a 19 ore UTC


121057Z 1212/1219 25013KT 9999 SCT030
TEMPO 1212/1216 26016G26KT
PROB40
TEMPO 1212/1216 7000 RA BKN014



MetMap, La meteo Aeronautica in un colpo d'occhio ! - Copyright ORBIFLY Dicembre 2007 - Disclaimer

ORBIFLY MET'MAP TEAM :

Programmazione e sviluppo : Alexandra Zaïnal
Concezione e sviluppo : Baudouin d'Aumeries
Co-Programmazione e sviluppo : Marc-Olivier Méhu
Supporto tecnico e logistico : Manuel Goepfert
Aiuto per la traduzione : Arnaldo La Scala

Contatto : metmap@orbifly.com




FONTI E CREDITI :

   NOAA